METAR AND TAF INFORMATION
METAR FOR EPKT
ADDS - METARS form results

(1029 UTC 21 January 2019)
Data provider http://aviationweather.gov/metar/data/
 
METAR text: EPKT 211000Z 09004KT 060V130 1400 R27/1200N BR OVC002 M07/M08 Q1022
Conditions at: EPKT (KATOWICE/PYRZOWI, PL) observed 1000 UTC 21 January 2019
Temperature: -7.0°C (19°F)
Dewpoint: -8.0°C (18°F) [RH = 93%]
Pressure (altimeter): 30.18 inches Hg (1022.0 mb)
Winds: from the E (90 degrees) at 5 MPH (4 knots; 2.1 m/s)
Visibility: 0.87 miles (1.40 km)
Ceiling: 200 feet AGL
Clouds: overcast cloud deck at 200 feet AGL
Weather: BR  (mist)

METAR text: EPKT 210930Z 09004KT 1500 BR BKN002 OVC003 M07/M08 Q1022
Conditions at: EPKT (KATOWICE/PYRZOWI, PL) observed 0930 UTC 21 January 2019
Temperature: -7.0°C (19°F)
Dewpoint: -8.0°C (18°F) [RH = 93%]
Pressure (altimeter): 30.18 inches Hg (1022.0 mb)
Winds: from the E (90 degrees) at 5 MPH (4 knots; 2.1 m/s)
Visibility: 0.93 miles (1.50 km)
Ceiling: 200 feet AGL
Clouds: broken clouds at 200 feet AGL
overcast cloud deck at 300 feet AGL
Weather: BR  (mist)

Forecast for: AMD
Text: TAF AMD EPKT 211000Z 2110/2206 VRB02KT 3000 BR OVC003
Forecast period: 1000 UTC 21 January 2019 to 0600 UTC 22 January 2019
Forecast type: FROM: standard forecast or significant change
Winds: variable direction winds at 2 MPH (2 knots; 1.0 m/s)
Visibility: 1.86 miles (2.99 km)
Ceiling: 300 feet AGL
Clouds: overcast cloud deck at 300 feet AGL
Weather: BR  (mist)
Text: TEMPO 2110/2112 1200 BR
Forecast period: 1000 to 1200 UTC 21 January 2019
Forecast type: TEMPORARY: The following changes expected for less than half the time period
Visibility: 0.75 miles (1.21 km)
Ceiling: unknown
Clouds: missing
Weather: BR  (mist)
Text: PROB30
Forecast period: 1000 to 1200 UTC 21 January 2019
Forecast type: TEMPORARY: The following changes expected for less than half the time period
Visibility: 0.37 miles (0.60 km)
Ceiling: 100 feet AGL
Clouds: broken clouds at 100 feet AGL
Weather: FZFG  (freezing fog)
Text: TEMPO 2110/2112 0600 FZFG BKN001
Forecast period: 1200 to 1600 UTC 21 January 2019
Forecast type: TEMPORARY: The following changes expected for less than half the time period
Visibility: 3 miles (5 km)
Ceiling: 1000 feet AGL
Clouds: broken clouds at 1000 feet AGL
Weather: BR  (mist)
Text: TEMPO 2112/2116 5000 BR BKN010
Forecast period: 1800 UTC 21 January 2019 to 0600 UTC 22 January 2019
Forecast type: TEMPORARY: The following changes expected for less than half the time period
Visibility: 0.25 miles (0.40 km)
Ceiling: 100 feet AGL
Clouds: broken clouds at 100 feet AGL
Weather: FZFG  (freezing fog)

 AIRPORT MAP

 RUNWAY INFORMATION

 AIRPORT FREQUENCIES
Type APP Name APP Frequency 121.075 MHZ
Type GCCD Name HANDLING Frequency 131.45 MHZ
Type TWR Name TWR Frequency 129.25 MHZ

 AIRPORT NEAR NAVIGATION AIDS
Type NDB Name Katowice Frequency 285 KHZ



Powered by Virtual Airlines Manager [v2.6.2]